Аэропорт: Жезказган. Жезказган

ICAO: UAKD

METAR:
2024-05-18 15:00:00
UAKD 181500Z 19005MPS 9999 BKN011CB BKN030 14/13 Q1005 NOSIG RMK QFE720/0961
TAF:
2024-05-18 11:06:00
TAF UAKD 181106Z 1812/1821 23007MPS 6000 BKN020CB OVC100 
  TEMPO 1812/1817 27011MPS 3100 -SHRA BR BKN011CB 
  PROB40 
  TEMPO 1812/1817 TS 
  TEMPO 1817/1821 27007MPS 3100 -SHRA BR BKN011CB